Time;durP1;ratioP1;P1;durP2;ratioP2;P2;SDS_P1;SDS_P2;PMS_P1;PMS_P2;Temp;Humidity;BMP_temperature;BMP_pressure;BME280_temperature;BME280_humidity;BME280_pressure;Samples;Min_cycle;Max_cycle;Signal;HPM_P1;HPM_P2
2023/01/14 00:01:51;;;;;;;0.00;0.00;;;;;;;7.04;100.00;99894.16;6184810;23;20005;-77
2023/01/14 00:04:16;;;;;;;0.00;0.00;;;;;;;7.08;100.00;99890.69;6154644;23;20131;-78
2023/01/14 00:06:49;;;;;;;0.00;0.00;;;;;;;7.15;100.00;99885.88;6132426;23;20005;-75
2023/01/14 00:09:14;;;;;;;0.00;0.00;;;;;;;7.18;100.00;99878.28;6158262;23;20016;-74
2023/01/14 00:11:46;;;;;;;0.03;0.03;;;;;;;7.26;100.00;99875.91;6179062;23;20009;-74
2023/01/14 00:14:14;;;;;;;0.00;0.00;;;;;;;7.29;100.00;99886.28;6157048;23;20008;-73
2023/01/14 00:16:40;;;;;;;0.00;0.00;;;;;;;7.31;100.00;99877.84;6177502;23;20008;-72
2023/01/14 00:19:06;;;;;;;0.00;0.00;;;;;;;7.27;100.00;99850.38;6158761;23;20452;-74
2023/01/14 00:21:32;;;;;;;0.00;0.00;;;;;;;7.34;100.00;99847.41;6128048;23;20044;-74
2023/01/14 00:23:57;;;;;;;0.00;0.00;;;;;;;7.39;100.00;99842.03;6158512;23;20009;-74
2023/01/14 00:26:24;;;;;;;0.00;0.00;;;;;;;7.38;100.00;99825.97;6153668;23;20063;-73
2023/01/14 00:28:50;;;;;;;0.10;0.10;;;;;;;7.43;100.00;99823.28;6154153;23;20005;-73
2023/01/14 00:31:21;;;;;;;0.00;0.00;;;;;;;7.46;100.00;99820.88;6130425;23;20051;-72
2023/01/14 00:33:47;;;;;;;0.00;0.00;;;;;;;7.50;100.00;99813.84;6153638;23;20019;-73
2023/01/14 00:36:15;;;;;;;0.00;0.00;;;;;;;7.46;100.00;99801.84;6183126;23;20036;-74
2023/01/14 00:38:41;;;;;;;0.00;0.00;;;;;;;7.46;100.00;99796.41;6157159;23;19997;-75
2023/01/14 00:41:21;;;;;;;0.10;0.10;;;;;;;7.48;100.00;99786.06;6162037;23;20008;-75
2023/01/14 00:43:49;;;;;;;0.10;0.10;;;;;;;7.54;100.00;99783.38;6209490;23;20011;-74
2023/01/14 00:46:17;;;;;;;0.00;0.00;;;;;;;7.56;100.00;99765.69;6209780;23;20001;-75
2023/01/14 00:48:44;;;;;;;0.10;0.10;;;;;;;7.50;100.00;99756.72;6207183;23;20119;-75
2023/01/14 00:51:11;;;;;;;0.00;0.00;;;;;;;7.54;100.00;99756.19;6210894;23;20027;-75
2023/01/14 00:53:37;;;;;;;0.00;0.00;;;;;;;7.53;100.00;99732.78;6208620;23;20013;-75
2023/01/14 00:56:03;;;;;;;0.00;0.00;;;;;;;7.55;100.00;99725.16;6210439;23;20416;-76
2023/01/14 00:58:29;;;;;;;0.00;0.00;;;;;;;7.62;100.00;99731.19;6209909;23;20023;-73
2023/01/14 01:00:55;;;;;;;0.10;0.10;;;;;;;7.61;100.00;99724.13;6205056;23;20637;-75
2023/01/14 01:03:21;;;;;;;0.00;0.00;;;;;;;7.54;100.00;99701.75;6212135;23;20103;-75
2023/01/14 01:05:47;;;;;;;0.00;0.00;;;;;;;7.61;100.00;99703.16;6210705;23;20004;-75
2023/01/14 01:08:16;;;;;;;0.00;0.00;;;;;;;7.66;100.00;99714.06;6209540;23;20055;-76
2023/01/14 01:10:47;;;;;;;0.00;0.00;;;;;;;7.65;100.00;99703.44;6210230;23;20685;-77
2023/01/14 01:13:13;;;;;;;0.10;0.10;;;;;;;7.65;100.00;99692.56;6209378;23;20527;-77
2023/01/14 01:15:40;;;;;;;0.10;0.10;;;;;;;7.66;100.00;99688.75;6211120;23;20032;-76
2023/01/14 01:18:06;;;;;;;0.00;0.00;;;;;;;7.66;100.00;99686.84;6183004;23;20005;-76
2023/01/14 01:20:32;;;;;;;0.00;0.00;;;;;;;7.59;100.00;99666.41;6184445;23;20482;-75
2023/01/14 01:22:59;;;;;;;0.00;0.00;;;;;;;7.62;100.00;99660.44;6206049;23;20004;-77
2023/01/14 01:25:25;;;;;;;0.00;0.00;;;;;;;7.61;100.00;99664.25;6211315;23;20031;-75
2023/01/14 01:27:52;;;;;;;0.00;0.00;;;;;;;7.57;100.00;99655.78;6209702;23;20000;-74
2023/01/14 01:30:18;;;;;;;0.00;0.00;;;;;;;7.66;100.00;99642.50;6209537;23;20032;-73
2023/01/14 01:32:43;;;;;;;0.10;0.10;;;;;;;7.59;100.00;99622.88;6211861;23;20035;-74
2023/01/14 01:35:09;;;;;;;0.00;0.00;;;;;;;7.57;100.00;99630.50;6205474;23;20015;-73
2023/01/14 01:37:35;;;;;;;0.00;0.00;;;;;;;7.62;100.00;99628.63;6209238;23;20016;-75
2023/01/14 01:40:00;;;;;;;0.00;0.00;;;;;;;7.63;100.00;99623.97;6207749;23;20332;-75
2023/01/14 01:42:28;;;;;;;0.00;0.00;;;;;;;7.60;100.00;99616.34;6207927;23;20012;-77
2023/01/14 01:45:09;;;;;;;0.00;0.00;;;;;;;7.67;100.00;99614.22;6211726;23;20019;-77
2023/01/14 01:47:35;;;;;;;0.00;0.00;;;;;;;7.62;100.00;99589.69;6210415;23;20023;-77
2023/01/14 01:50:00;;;;;;;0.00;0.00;;;;;;;7.57;100.00;99559.75;6185366;23;20427;-79
2023/01/14 01:52:55;;;;;;;0.00;0.00;;;;;;;7.77;100.00;99576.13;6188147;23;20012;-81
2023/01/14 01:55:23;;;;;;;0.00;0.00;;;;;;;7.78;100.00;99561.44;6213015;23;20024;-81
2023/01/14 01:57:55;;;;;;;0.00;0.00;;;;;;;7.77;100.00;99543.47;6210543;23;20303;-80
2023/01/14 02:00:23;;;;;;;0.00;0.00;;;;;;;7.77;100.00;99532.59;6212012;23;20424;-80
2023/01/14 02:02:57;;;;;;;0.00;0.00;;;;;;;7.79;100.00;99526.88;6210493;23;20063;-80
2023/01/14 02:05:25;;;;;;;0.00;0.00;;;;;;;7.82;100.00;99529.88;6214099;23;20059;-80
2023/01/14 02:07:50;;;;;;;0.00;0.00;;;;;;;7.83;100.00;99547.84;6211401;23;20005;-82
2023/01/14 02:10:17;;;;;;;0.00;0.00;;;;;;;7.82;100.00;99523.59;6186327;23;20012;-80
2023/01/14 02:12:44;;;;;;;0.00;0.00;;;;;;;7.94;100.00;99536.97;6207263;23;20034;-81
2023/01/14 02:15:43;;;;;;;0.10;0.10;;;;;;;7.90;100.00;99514.91;6210700;23;20062;-81
2023/01/14 02:18:46;;;;;;;0.00;0.00;;;;;;;7.88;100.00;99499.94;6210039;23;19992;-80
2023/01/14 02:21:22;;;;;;;0.00;0.00;;;;;;;7.85;100.00;99472.16;6211783;23;20012;-80
2023/01/14 02:24:44;;;;;;;;;;;;;;;;;;;;;
2023/01/14 02:27:38;;;;;;;0.00;0.00;;;;;;;7.99;100.00;99463.47;6215501;23;20494;-80
2023/01/14 02:30:18;;;;;;;0.00;0.00;;;;;;;7.88;100.00;99440.88;6214298;23;20008;-80
2023/01/14 02:33:11;;;;;;;0.00;0.00;;;;;;;7.94;100.00;99433.50;6213210;23;20012;-80
2023/01/14 02:36:12;;;;;;;0.00;0.00;;;;;;;7.97;100.00;99438.41;6214549;23;20008;-81
2023/01/14 02:38:51;;;;;;;0.00;0.00;;;;;;;8.04;100.00;99401.66;6210131;23;20080;-81
2023/01/14 02:44:52;;;;;;;0.00;0.00;;;;;;;8.08;100.00;99379.34;6153375;23;20013;-81
2023/01/14 02:47:28;;;;;;;0.10;0.10;;;;;;;8.01;100.00;99366.00;6213054;23;20067;-80
2023/01/14 02:49:57;;;;;;;0.00;0.00;;;;;;;7.98;100.00;99342.03;6212850;23;20005;-82
2023/01/14 02:52:24;;;;;;;0.00;0.00;;;;;;;8.07;100.00;99354.00;6213836;23;20091;-80
2023/01/14 02:55:02;;;;;;;0.00;0.00;;;;;;;8.02;100.00;99326.78;6218316;23;20004;-80
2023/01/14 02:58:25;;;;;;;0.00;0.00;;;;;;;7.95;100.00;99328.97;6213914;23;20055;-81
2023/01/14 03:00:58;;;;;;;0.10;0.10;;;;;;;8.19;100.00;99330.03;6210498;23;20005;-81
2023/01/14 03:03:46;;;;;;;0.00;0.00;;;;;;;8.24;100.00;99322.94;6213052;23;20004;-81
2023/01/14 03:06:58;;;;;;;0.00;0.00;;;;;;;8.20;100.00;99303.59;6213900;23;20008;-80
2023/01/14 03:09:50;;;;;;;0.00;0.00;;;;;;;8.28;100.00;99296.75;6157197;23;20340;-82
2023/01/14 03:12:26;;;;;;;0.00;0.00;;;;;;;8.24;100.00;99291.06;6160234;23;20001;-82
2023/01/14 03:15:01;;;;;;;0.00;0.00;;;;;;;8.21;100.00;99254.28;6189281;23;20328;-83
2023/01/14 03:17:38;;;;;;;0.00;0.00;;;;;;;8.21;100.00;99254.28;6215356;23;20082;-83
2023/01/14 03:20:22;;;;;;;0.00;0.00;;;;;;;8.29;100.00;99271.94;6211361;23;20020;-81
2023/01/14 03:23:04;;;;;;;;;;;;;;;;;;;;;
2023/01/14 03:25:33;;;;;;;0.00;0.00;;;;;;;8.41;100.00;99285.28;6211416;23;20084;-81
2023/01/14 03:28:12;;;;;;;;;;;;;;;;;;;;;
2023/01/14 03:31:02;;;;;;;0.00;0.00;;;;;;;8.24;100.00;99211.28;6239961;23;19996;-81
2023/01/14 03:33:45;;;;;;;0.00;0.00;;;;;;;8.20;100.00;99190.00;6218914;23;20001;-82
2023/01/14 03:36:49;;;;;;;;;;;;;;;;;;;;;
2023/01/14 03:39:32;;;;;;;;;;;;;;;;;;;;;
2023/01/14 03:42:25;;;;;;;0.08;0.08;;;;;;;8.26;100.00;99160.03;6213759;23;20095;-80
2023/01/14 03:45:16;;;;;;;0.00;0.00;;;;;;;8.49;100.00;99173.00;6188938;23;20015;-81
2023/01/14 03:47:43;;;;;;;0.10;0.10;;;;;;;8.40;100.00;99150.16;6214779;23;19997;-80
2023/01/14 03:50:15;;;;;;;0.00;0.00;;;;;;;8.39;100.00;99162.13;6183146;23;20719;-80
2023/01/14 03:52:56;;;;;;;0.10;0.10;;;;;;;8.40;100.00;99144.69;6187519;23;20016;-79
2023/01/14 03:55:37;;;;;;;0.00;0.00;;;;;;;8.48;100.00;99135.94;6187184;23;20088;-79
2023/01/14 03:58:15;;;;;;;0.00;0.00;;;;;;;8.48;100.00;99127.75;6214260;23;20004;-79
2023/01/14 04:00:58;;;;;;;0.00;0.00;;;;;;;8.35;100.00;99091.06;6214252;23;20519;-79
2023/01/14 04:03:26;;;;;;;0.00;0.00;;;;;;;8.39;100.00;99092.09;6187859;23;20043;-79
2023/01/14 04:05:53;;;;;;;0.00;0.00;;;;;;;8.47;100.00;99109.81;6185118;23;20000;-79
2023/01/14 04:08:24;;;;;;;0.00;0.00;;;;;;;8.45;100.00;99111.19;6212690;23;20000;-79
2023/01/14 04:10:58;;;;;;;0.00;0.00;;;;;;;8.39;100.00;99113.09;6187457;23;20379;-80
2023/01/14 04:16:09;;;;;;;0.00;0.00;;;;;;;8.33;100.00;99084.28;6210688;23;20067;-79
2023/01/14 04:18:35;;;;;;;0.00;0.00;;;;;;;8.34;100.00;99050.50;6163143;23;20043;-79
2023/01/14 04:21:09;;;;;;;0.00;0.00;;;;;;;8.35;100.00;99052.09;6187084;23;20009;-80
2023/01/14 04:23:44;;;;;;;0.10;0.10;;;;;;;8.33;100.00;99029.81;6186725;23;20457;-79
2023/01/14 04:26:09;;;;;;;0.00;0.00;;;;;;;8.29;100.00;99042.34;6187431;23;20419;-78
2023/01/14 04:28:35;;;;;;;0.00;0.00;;;;;;;8.35;100.00;99014.81;6211469;23;20012;-79
2023/01/14 04:31:00;;;;;;;0.00;0.00;;;;;;;8.30;100.00;99014.03;6213420;23;20008;-79
2023/01/14 04:33:25;;;;;;;0.00;0.00;;;;;;;8.30;100.00;99027.66;6184235;23;20054;-79
2023/01/14 04:35:51;;;;;;;0.00;0.00;;;;;;;8.42;100.00;99008.22;6139077;23;20009;-80
2023/01/14 04:38:23;;;;;;;0.00;0.00;;;;;;;8.32;100.00;98998.22;6161078;23;20055;-79
2023/01/14 04:40:54;;;;;;;0.00;0.00;;;;;;;8.35;100.00;98982.13;6189059;23;20014;-81
2023/01/14 04:43:21;;;;;;;0.00;0.00;;;;;;;8.32;100.00;98950.00;6196967;23;20025;-79
2023/01/14 04:45:59;;;;;;;0.00;0.00;;;;;;;8.35;100.00;98959.50;6164500;23;20038;-81
2023/01/14 04:48:25;;;;;;;0.00;0.00;;;;;;;8.34;100.00;98947.00;6189469;23;20000;-82
2023/01/14 04:50:58;;;;;;;0.00;0.00;;;;;;;8.29;100.00;98960.66;6186748;23;20000;-80
2023/01/14 04:53:25;;;;;;;0.00;0.00;;;;;;;8.34;100.00;98974.25;6164221;23;20000;-79
2023/01/14 04:55:53;;;;;;;0.00;0.00;;;;;;;8.27;100.00;98913.84;6186464;23;20027;-79
2023/01/14 04:58:19;;;;;;;0.00;0.00;;;;;;;8.36;100.00;98920.28;6211813;23;20008;-80
2023/01/14 05:00:45;;;;;;;0.00;0.00;;;;;;;8.28;100.00;98893.66;6163313;23;20107;-78
2023/01/14 05:03:13;;;;;;;0.00;0.00;;;;;;;8.34;100.00;98903.44;6182169;23;20088;-77
2023/01/14 05:05:42;;;;;;;0.00;0.00;;;;;;;8.30;100.00;98897.72;6187937;23;20031;-80
2023/01/14 05:08:13;;;;;;;0.00;0.00;;;;;;;8.28;100.00;98877.31;6163080;23;20449;-80
2023/01/14 05:10:41;;;;;;;0.00;0.00;;;;;;;8.35;100.00;98894.13;6188153;23;20012;-83
2023/01/14 05:13:11;;;;;;;0.00;0.00;;;;;;;8.37;100.00;98883.78;6190158;23;20099;-82
2023/01/14 05:15:40;;;;;;;0.00;0.00;;;;;;;8.38;100.00;98861.69;6163972;23;20062;-82
2023/01/14 05:18:13;;;;;;;0.00;0.00;;;;;;;8.41;100.00;98860.31;6163761;23;20092;-79
2023/01/14 05:20:40;;;;;;;0.00;0.00;;;;;;;8.32;100.00;98840.25;6185525;23;20768;-79
2023/01/14 05:23:11;;;;;;;0.00;0.00;;;;;;;8.33;100.00;98817.34;6188367;23;20027;-79
2023/01/14 05:25:40;;;;;;;0.00;0.00;;;;;;;8.30;100.00;98845.19;6184879;23;20001;-79
2023/01/14 05:28:15;;;;;;;0.00;0.00;;;;;;;8.27;100.00;98815.81;6188501;23;20016;-79
2023/01/14 05:30:48;;;;;;;0.00;0.00;;;;;;;8.43;100.00;98828.13;6159849;23;20028;-80
2023/01/14 05:33:14;;;;;;;0.00;0.00;;;;;;;8.39;100.00;98818.91;6186542;23;20060;-80
2023/01/14 05:35:40;;;;;;;0.00;0.00;;;;;;;8.37;100.00;98788.44;6186834;23;20088;-80
2023/01/14 05:38:06;;;;;;;0.10;0.10;;;;;;;8.32;100.00;98786.59;6188444;23;19997;-79
2023/01/14 05:40:40;;;;;;;0.00;0.00;;;;;;;8.39;100.00;98781.56;6189265;23;20419;-79
2023/01/14 05:45:52;;;;;;;0.00;0.00;;;;;;;8.33;100.00;98747.34;6188412;23;20070;-81
2023/01/14 05:48:23;;;;;;;0.00;0.00;;;;;;;8.37;100.00;98758.47;6162067;23;20012;-80
2023/01/14 05:50:53;;;;;;;0.00;0.00;;;;;;;8.46;100.00;98775.81;6211813;23;20015;-79
2023/01/14 05:53:20;;;;;;;0.00;0.00;;;;;;;8.39;100.00;98753.53;6212424;23;20008;-81
2023/01/14 05:55:45;;;;;;;0.00;0.00;;;;;;;8.43;100.00;98746.41;6212311;23;20086;-81
2023/01/14 05:58:11;;;;;;;0.00;0.00;;;;;;;8.43;100.00;98738.25;6160987;23;20004;-80
2023/01/14 06:07:05;;;;;;;;;;;;;;;;;;;;;
2023/01/14 06:09:51;;;;;;;0.00;0.00;;;;;;;8.60;100.00;98698.81;6191972;23;20040;-85
2023/01/14 06:12:33;;;;;;;0.00;0.00;;;;;;;8.58;100.00;98693.66;6191407;23;20033;-86
2023/01/14 06:14:59;;;;;;;0.00;0.00;;;;;;;8.60;100.00;98663.38;6162539;23;20452;-87
2023/01/14 06:20:17;;;;;;;0.00;0.00;;;;;;;8.69;100.00;98669.78;6173339;23;20026;-85
2023/01/14 06:22:56;;;;;;;0.00;0.00;;;;;;;8.66;100.00;98648.56;6186827;23;20013;-86
2023/01/14 06:25:21;;;;;;;0.00;0.00;;;;;;;8.80;100.00;98652.16;6185257;23;20424;-82
2023/01/14 06:28:05;;;;;;;0.00;0.00;;;;;;;8.76;100.00;98610.28;6192229;23;20087;-85
2023/01/14 06:30:48;;;;;;;;;;;;;;;;;;;;;
2023/01/14 06:33:23;;;;;;;0.05;0.05;;;;;;;9.02;100.00;98634.34;6216555;23;20035;-85
2023/01/14 06:35:55;;;;;;;0.00;0.00;;;;;;;9.02;100.00;98623.44;6213627;23;20055;-84
2023/01/14 06:38:46;;;;;;;;;;;;;;;;;;;;;
2023/01/14 06:41:12;;;;;;;0.00;0.00;;;;;;;9.16;100.00;98624.28;6213184;23;20495;-85
2023/01/14 06:43:42;;;;;;;0.00;0.00;;;;;;;9.29;100.00;98616.41;6216107;23;20011;-82
2023/01/14 06:46:11;;;;;;;0.00;0.00;;;;;;;9.25;100.00;98605.31;6215017;23;20004;-83
2023/01/14 06:48:48;;;;;;;0.00;0.00;;;;;;;9.30;100.00;98577.13;6191007;23;20008;-86
2023/01/14 06:51:33;;;;;;;;;;;;;;;;;;;;;
2023/01/14 06:54:12;;;;;;;;;;;;;;;9.55;100.00;98581.25;6218868;23;20036;-85
2023/01/14 06:57:01;;;;;;;0.00;0.00;;;;;;;9.59;100.00;98618.56;6189154;23;19958;-88
2023/01/14 06:59:42;;;;;;;0.00;0.00;;;;;;;9.66;100.00;98581.88;6213214;23;20009;-81
2023/01/14 07:02:18;;;;;;;0.00;0.00;;;;;;;9.53;100.00;98562.47;6212283;23;20012;-82
2023/01/14 07:04:51;;;;;;;0.00;0.00;;;;;;;9.64;100.00;98605.91;6211437;23;20076;-83
2023/01/14 07:07:26;;;;;;;0.00;0.00;;;;;;;9.73;100.00;98571.34;6214640;23;20004;-80
2023/01/14 07:09:51;;;;;;;0.00;0.00;;;;;;;9.64;100.00;98534.94;6186748;23;20068;-84
2023/01/14 07:12:22;;;;;;;0.10;0.10;;;;;;;9.57;100.00;98529.94;6188851;23;20088;-84
2023/01/14 07:15:00;;;;;;;;;;;;;;;;;;;;;
2023/01/14 07:17:41;;;;;;;;;;;;;;;;;;;;;
2023/01/14 07:20:25;;;;;;;0.00;0.00;;;;;;;9.81;100.00;98535.13;6215845;23;20084;-82
2023/01/14 07:22:54;;;;;;;0.10;0.10;;;;;;;9.67;100.00;98490.69;6193670;23;20332;-84
2023/01/14 07:25:19;;;;;;;0.10;0.10;;;;;;;9.79;100.00;98499.16;6212505;23;20015;-82
2023/01/14 07:27:50;;;;;;;0.00;0.00;;;;;;;9.88;100.00;98524.59;6217484;23;20643;-84
2023/01/14 07:30:38;;;;;;;0.00;0.00;;;;;;;9.78;100.00;98509.25;6191634;23;20084;-84
2023/01/14 07:33:14;;;;;;;0.00;0.00;;;;;;;9.86;100.00;98504.19;6194243;23;20019;-87
2023/01/14 07:35:39;;;;;;;0.00;0.00;;;;;;;9.86;100.00;98483.16;6193866;23;20017;-85
2023/01/14 07:38:05;;;;;;;0.00;0.00;;;;;;;9.83;100.00;98504.78;6211204;23;20063;-78
2023/01/14 07:40:38;;;;;;;0.00;0.00;;;;;;;9.88;100.00;98491.81;6208518;23;20010;-80
2023/01/14 07:43:11;;;;;;;0.00;0.00;;;;;;;10.01;100.00;98516.69;6211776;23;20024;-79
2023/01/14 07:45:53;;;;;;;0.00;0.00;;;;;;;10.03;100.00;98504.34;6205616;23;20031;-78
2023/01/14 07:48:21;;;;;;;0.00;0.00;;;;;;;9.95;100.00;98519.50;6188427;23;20008;-79
2023/01/14 07:50:46;;;;;;;0.00;0.00;;;;;;;10.02;100.00;98480.06;6202646;23;20015;-76
2023/01/14 07:53:11;;;;;;;0.00;0.00;;;;;;;10.01;100.00;98462.88;6156075;23;20004;-76
2023/01/14 07:58:35;;;;;;;0.00;0.00;;;;;;;10.17;100.00;98459.75;6190542;23;20008;-79
2023/01/14 08:01:06;;;;;;;0.00;0.00;;;;;;;10.08;100.00;98476.09;6194698;23;20095;-80
2023/01/14 08:03:37;;;;;;;0.00;0.00;;;;;;;10.12;100.00;98452.50;6226852;23;20016;-80
2023/01/14 08:06:06;;;;;;;0.00;0.00;;;;;;;10.19;100.00;98480.19;6222929;23;20070;-81
2023/01/14 08:08:33;;;;;;;0.00;0.00;;;;;;;10.11;100.00;98434.50;6220619;23;20680;-81
2023/01/14 09:29:03;;;;;;;0.00;0.00;;;;;;;10.62;100.00;98351.19;6207212;23;20037;-79
2023/01/14 09:39:03;;;;;;;0.00;0.00;;;;;;;10.65;100.00;98344.31;6004334;23;20020;-79
2023/01/14 09:42:46;;;;;;;;;;;;;;;;;;;;;
2023/01/14 09:46:01;;;;;;;;;;;;;;;;;;;;;
2023/01/14 09:52:30;;;;;;;;;;;;;;;;;;;;;
2023/01/14 09:59:06;;;;;;;;;;;;;;;;;;;;;
2023/01/14 10:16:35;;;;;;;;;;;;;;;;;;;;;
2023/01/14 10:23:26;;;;;;;;;;;;;;;;;;;;;
2023/01/14 10:30:58;;;;;;;0.00;0.00;;;;;;;10.22;100.00;98435.88;5922256;24;20021;-79
2023/01/14 11:28:51;;;;;;;0.00;0.00;;;;;;;9.69;100.00;98515.75;5772711;24;20047;-78
2023/01/14 11:31:28;;;;;;;0.00;0.00;;;;;;;9.61;100.00;98509.91;5908005;23;20026;-80
2023/01/14 11:33:54;;;;;;;0.00;0.00;;;;;;;9.65;100.00;98517.47;6044175;23;20011;-78
2023/01/14 11:36:25;;;;;;;0.00;0.00;;;;;;;9.71;100.00;98513.50;6183548;23;19997;-78
2023/01/14 11:38:53;;;;;;;0.00;0.00;;;;;;;9.71;100.00;98502.59;6178889;23;20089;-81
2023/01/14 11:41:30;;;;;;;0.00;0.00;;;;;;;9.71;100.00;98502.59;6157154;23;20005;-79
2023/01/14 11:44:09;;;;;;;0.00;0.00;;;;;;;9.76;100.00;98491.56;6181147;23;20067;-80
2023/01/14 11:46:44;;;;;;;0.00;0.00;;;;;;;9.86;100.00;98488.59;6184707;23;20008;-80
2023/01/14 11:49:12;;;;;;;0.10;0.10;;;;;;;10.03;100.00;98495.31;6157163;23;20085;-80
2023/01/14 11:51:59;;;;;;;0.00;0.00;;;;;;;10.08;100.00;98506.13;6180777;23;20024;-78
2023/01/14 11:54:58;;;;;;;;;;;;;;;;;;;;;
2023/01/14 11:57:26;;;;;;;0.00;0.00;;;;;;;10.14;100.00;98504.88;6184141;23;20376;-77
2023/01/14 11:59:53;;;;;;;0.00;0.00;;;;;;;10.18;100.00;98516.81;6176079;23;20008;-78
2023/01/14 12:02:32;;;;;;;0.00;0.00;;;;;;;10.16;100.00;98515.50;6156987;23;20009;-79
2023/01/14 12:05:15;;;;;;;0.00;0.00;;;;;;;10.13;100.00;98525.94;6177239;23;20016;-79
2023/01/14 12:07:47;;;;;;;0.00;0.00;;;;;;;10.06;100.00;98511.09;6154568;23;20408;-77
2023/01/14 12:10:20;;;;;;;0.00;0.00;;;;;;;10.15;100.00;98506.50;6177201;23;20623;-77
2023/01/14 12:18:43;;;;;;;0.00;0.00;;;;;;;10.08;100.00;98522.53;6180531;23;20028;-81
2023/01/14 12:21:08;;;;;;;0.00;0.00;;;;;;;9.87;100.00;98539.38;6181554;23;20001;-78
2023/01/14 12:27:08;;;;;;;0.00;0.00;;;;;;;9.59;100.00;98533.16;6105747;23;20448;-80
2023/01/14 12:29:52;;;;;;;0.00;0.00;;;;;;;9.58;100.00;98529.63;6182377;22;20435;-76
2023/01/14 12:32:37;;;;;;;;;;;;;;;;;;;;;
2023/01/14 12:35:07;;;;;;;0.00;0.00;;;;;;;9.87;100.00;98528.44;6183460;23;20085;-79
2023/01/14 12:37:58;;;;;;;0.10;0.10;;;;;;;10.04;100.00;98535.19;6178975;23;20005;-79
2023/01/14 12:46:25;;;;;;;0.00;0.00;;;;;;;10.57;100.00;98548.13;6188602;23;20012;-78
2023/01/14 12:48:51;;;;;;;0.00;0.00;;;;;;;10.35;100.00;98546.19;6139958;23;20005;-78
2023/01/14 12:51:29;;;;;;;0.10;0.10;;;;;;;10.21;100.00;98538.03;6134883;23;20028;-79
2023/01/14 12:53:59;;;;;;;0.00;0.00;;;;;;;10.02;100.00;98534.69;6156771;23;20036;-78
2023/01/14 12:56:48;;;;;;;0.00;0.00;;;;;;;9.91;100.00;98529.44;6155963;23;20013;-77
2023/01/14 12:59:19;;;;;;;0.00;0.00;;;;;;;9.99;100.00;98532.53;6154644;23;20446;-78
2023/01/14 13:01:56;;;;;;;0.00;0.00;;;;;;;10.12;100.00;98518.06;6184957;23;20009;-79
2023/01/14 13:04:47;;;;;;;0.00;0.00;;;;;;;10.25;100.00;98511.72;6185713;23;20001;-78
2023/01/14 13:07:28;;;;;;;0.00;0.00;;;;;;;10.38;100.00;98522.91;6183639;23;20091;-79
2023/01/14 13:09:58;;;;;;;0.10;0.10;;;;;;;10.27;100.00;98525.88;6180828;23;20047;-80
2023/01/14 13:12:57;;;;;;;0.10;0.10;;;;;;;10.26;100.00;98518.78;6156031;23;20009;-80
2023/01/14 13:15:35;;;;;;;0.00;0.00;;;;;;;10.19;100.00;98514.88;6154889;23;20059;-79
2023/01/14 13:18:03;;;;;;;0.00;0.00;;;;;;;10.16;100.00;98501.84;6178079;23;20392;-80
2023/01/14 13:20:28;;;;;;;0.00;0.00;;;;;;;10.29;100.00;98529.13;6158003;23;20853;-79
2023/01/14 13:22:54;;;;;;;0.00;0.00;;;;;;;10.36;100.00;98538.81;6177441;23;20036;-80
2023/01/14 13:25:34;;;;;;;0.00;0.00;;;;;;;10.37;100.00;98532.25;6182696;23;20001;-80
2023/01/14 13:28:11;;;;;;;0.00;0.00;;;;;;;10.59;100.00;98543.16;6151472;23;20013;-79
2023/01/14 13:30:53;;;;;;;0.00;0.00;;;;;;;10.27;100.00;98520.41;6157119;23;20009;-78
2023/01/14 13:36:40;;;;;;;0.00;0.00;;;;;;;9.79;100.00;98554.53;6185694;23;20055;-83
2023/01/14 13:39:27;;;;;;;0.00;0.00;;;;;;;9.25;100.00;98554.28;6161315;23;20013;-83
2023/01/14 13:42:16;;;;;;;0.00;0.00;;;;;;;8.60;100.00;98584.38;6182849;23;20005;-79
2023/01/14 13:45:07;;;;;;;0.00;0.00;;;;;;;8.12;100.00;98590.78;6183342;23;20046;-77
2023/01/14 13:47:36;;;;;;;0.00;0.00;;;;;;;8.05;100.00;98591.16;6180384;23;20080;-78
2023/01/14 13:50:16;;;;;;;0.00;0.00;;;;;;;7.94;100.00;98587.75;6182394;23;20328;-78
2023/01/14 13:52:50;;;;;;;0.00;0.00;;;;;;;7.98;100.00;98617.94;6182898;23;20004;-79
2023/01/14 13:55:36;;;;;;;0.00;0.00;;;;;;;7.78;100.00;98619.00;6158868;23;20012;-79
2023/01/14 13:58:25;;;;;;;0.00;0.00;;;;;;;7.65;100.00;98609.66;6153541;23;20013;-78
2023/01/14 14:01:19;;;;;;;0.00;0.00;;;;;;;7.80;100.00;98614.91;6156953;23;20005;-79
2023/01/14 14:03:47;;;;;;;0.00;0.00;;;;;;;7.93;100.00;98615.28;6160171;23;20511;-80
2023/01/14 14:06:18;;;;;;;0.00;0.00;;;;;;;8.53;100.00;98640.06;6183266;23;20035;-78
2023/01/14 14:08:52;;;;;;;0.00;0.00;;;;;;;9.44;100.00;98657.06;6183397;23;20359;-76
2023/01/14 14:11:21;;;;;;;0.00;0.00;;;;;;;8.84;100.00;98653.19;6183986;23;20001;-78
2023/01/14 14:14:19;;;;;;;0.00;0.00;;;;;;;8.39;100.00;98644.59;6159090;23;20331;-77
2023/01/14 14:17:09;;;;;;;0.00;0.00;;;;;;;8.15;100.00;98664.53;6173675;23;20004;-81
2023/01/14 14:19:50;;;;;;;0.00;0.00;;;;;;;7.84;100.00;98651.31;6162087;23;20064;-79
2023/01/14 14:22:45;;;;;;;0.00;0.00;;;;;;;7.78;100.00;98682.44;6227115;22;20430;-79
2023/01/14 14:25:20;;;;;;;0.00;0.00;;;;;;;7.96;100.00;98675.41;6218765;23;20042;-77
2023/01/14 14:31:39;;;;;;;0.10;0.10;;;;;;;7.97;100.00;98692.53;6221893;23;20008;-80
2023/01/14 14:34:20;;;;;;;0.00;0.00;;;;;;;7.75;100.00;98693.88;6219335;23;20338;-79
2023/01/14 14:37:02;;;;;;;0.00;0.00;;;;;;;7.62;100.00;98708.16;6217078;23;20008;-79
2023/01/14 14:39:53;;;;;;;;;;;;;;;;;;;;;
2023/01/14 14:42:21;;;;;;;0.00;0.00;;;;;;;7.48;100.00;98684.38;6246753;23;20054;-78
2023/01/14 14:44:59;;;;;;;0.00;0.00;;;;;;;7.55;100.00;98702.25;6218189;23;20004;-78
2023/01/14 14:48:06;;;;;;;;;;;;;;;;;;;;;
2023/01/14 14:50:52;;;;;;;0.00;0.00;;;;;;;7.38;100.00;98710.88;6222866;23;20107;-77
2023/01/14 14:57:17;;;;;;;0.00;0.00;;;;;;;7.12;100.00;98730.91;6181621;23;20020;-77
2023/01/14 14:59:46;;;;;;;0.00;0.00;;;;;;;7.01;100.00;98717.69;6197116;23;20328;-78
2023/01/14 15:02:28;;;;;;;0.00;0.00;;;;;;;7.03;100.00;98726.41;6245564;23;20003;-78
2023/01/14 15:05:31;;;;;;;0.10;0.10;;;;;;;6.93;100.00;98719.13;6215143;23;20071;-78
2023/01/14 15:08:00;;;;;;;0.00;0.00;;;;;;;7.02;100.00;98736.44;6215552;23;20067;-78
2023/01/14 15:10:27;;;;;;;0.00;0.00;;;;;;;7.08;100.00;98734.50;6215530;23;20019;-78
2023/01/14 15:13:08;;;;;;;;;;;;;;;;;;;;;
2023/01/14 15:15:33;;;;;;;0.05;0.05;;;;;;;6.98;100.00;98732.69;6242013;23;20091;-78
2023/01/14 15:18:51;;;;;;;;;;;;;;;;;;;;;
2023/01/14 15:24:41;;;;;;;0.00;0.00;;;;;;;6.81;100.00;98750.19;6241055;22;20027;-77
2023/01/14 15:27:21;;;;;;;;;;;;;;;;;;;;;
2023/01/14 15:30:00;;;;;;;0.00;0.00;;;;;;;6.72;100.00;98778.25;6244694;23;20083;-80
2023/01/14 15:32:40;;;;;;;0.00;0.00;;;;;;;6.65;100.00;98778.53;6221047;23;20012;-77
2023/01/14 15:35:59;;;;;;;;;;;;;;;;;;;;;
2023/01/14 15:38:17;;;;;;;0.00;0.00;;;;;;;6.38;100.00;98752.63;6113220;23;20014;-78
2023/01/14 15:41:20;;;;;;;;;;;;;;;;;;;;;
2023/01/14 15:43:46;;;;;;;0.00;0.00;;;;;;;6.25;100.00;98775.75;6240016;23;20080;-76
2023/01/14 15:46:26;;;;;;;0.10;0.10;;;;;;;6.22;100.00;98765.44;6216824;23;20083;-76
2023/01/14 15:48:57;;;;;;;0.00;0.00;;;;;;;6.24;100.00;98781.47;6240108;23;20007;-77
2023/01/14 15:51:23;;;;;;;0.00;0.00;;;;;;;6.16;100.00;98782.81;6213963;23;20438;-77
2023/01/14 15:53:59;;;;;;;0.00;0.00;;;;;;;6.12;100.00;98770.91;6193190;23;20465;-80
2023/01/14 15:56:42;;;;;;;0.10;0.10;;;;;;;6.06;100.00;98778.25;6212424;23;19996;-77
2023/01/14 15:59:21;;;;;;;;;;;;;;;;;;;;;
2023/01/14 16:02:25;;;;;;;0.00;0.00;;;;;;;6.10;100.00;98817.34;6238738;23;20102;-77
2023/01/14 16:05:23;;;;;;;0.00;0.00;;;;;;;5.94;100.00;98780.41;6238962;23;20035;-76
2023/01/14 16:07:52;;;;;;;0.00;0.00;;;;;;;5.95;100.00;98798.34;6213703;23;20008;-76
2023/01/14 16:10:18;;;;;;;0.00;0.00;;;;;;;5.92;100.00;98804.31;6189036;23;20032;-76
2023/01/14 16:12:44;;;;;;;0.00;0.00;;;;;;;5.74;100.00;98782.09;6216045;23;20011;-76
2023/01/14 16:15:19;;;;;;;0.00;0.00;;;;;;;5.70;100.00;98788.34;6210789;23;20115;-76
2023/01/14 16:17:45;;;;;;;0.00;0.00;;;;;;;5.64;100.00;98792.16;6216466;23;20018;-76
2023/01/14 16:20:15;;;;;;;0.00;0.00;;;;;;;5.62;100.00;98805.97;6238293;23;20886;-77
2023/01/14 16:22:43;;;;;;;0.00;0.00;;;;;;;5.65;100.00;98805.47;6214706;23;20434;-76
2023/01/14 16:25:09;;;;;;;0.00;0.00;;;;;;;5.71;100.00;98826.06;6186455;23;20569;-78
2023/01/14 16:27:36;;;;;;;0.00;0.00;;;;;;;5.73;100.00;98826.59;6212896;23;20012;-77
2023/01/14 16:30:06;;;;;;;0.00;0.00;;;;;;;5.78;100.00;98831.19;6214027;23;20004;-76